sensor_id;sensor_type;location;lat;lon;timestamp;pressure;altitude;pressure_sealevel;temperature;humidity
29985;BME280;17387;42.690;23.328;2022-12-18T00:02:09;47823.22;;;-144.02;98.47
29985;BME280;17387;42.690;23.328;2022-12-18T00:04:34;47811.03;;;-144.02;98.19
29985;BME280;17387;42.690;23.328;2022-12-18T00:07:00;47839.47;;;-144.02;98.43
29985;BME280;17387;42.690;23.328;2022-12-18T00:09:25;47827.28;;;-144.02;98.67
29985;BME280;17387;42.690;23.328;2022-12-18T00:11:50;47876.06;;;-144.02;98.30
29985;BME280;17387;42.690;23.328;2022-12-18T00:14:16;47835.41;;;-144.02;98.22
29985;BME280;17387;42.690;23.328;2022-12-18T00:16:45;47829.31;;;-144.02;98.54
29985;BME280;17387;42.690;23.328;2022-12-18T00:19:12;47811.03;;;-144.02;98.36
29985;BME280;17387;42.690;23.328;2022-12-18T00:21:38;47811.03;;;-144.02;97.66
29985;BME280;17387;42.690;23.328;2022-12-18T00:24:05;47865.91;;;-144.02;98.31
29985;BME280;17387;42.690;23.328;2022-12-18T00:26:32;47798.84;;;-144.02;98.02
29985;BME280;17387;42.690;23.328;2022-12-18T00:29:01;47843.53;;;-144.02;98.20
29985;BME280;17387;42.690;23.328;2022-12-18T00:31:26;47880.09;;;-144.02;98.06
29985;BME280;17387;42.690;23.328;2022-12-18T00:33:56;47817.13;;;-144.02;98.54
29985;BME280;17387;42.690;23.328;2022-12-18T00:36:25;47813.06;;;-144.02;97.64
29985;BME280;17387;42.690;23.328;2022-12-18T00:38:51;47841.50;;;-144.02;97.71
29985;BME280;17387;42.690;23.328;2022-12-18T00:41:17;47928.88;;;-144.02;97.48
29985;BME280;17387;42.690;23.328;2022-12-18T00:44:03;47843.53;;;-144.02;97.02
29985;BME280;17387;42.690;23.328;2022-12-18T00:46:30;47831.34;;;-144.02;96.87
29985;BME280;17387;42.690;23.328;2022-12-18T00:48:55;47815.09;;;-144.02;96.74
29985;BME280;17387;42.690;23.328;2022-12-18T00:51:21;47790.72;;;-144.02;97.41
29985;BME280;17387;42.690;23.328;2022-12-18T00:53:46;47817.13;;;-144.02;96.99
29985;BME280;17387;42.690;23.328;2022-12-18T00:56:11;47802.91;;;-144.02;97.36
29985;BME280;17387;42.690;23.328;2022-12-18T00:58:37;47829.31;;;-144.02;97.20
29985;BME280;17387;42.690;23.328;2022-12-18T01:01:05;47780.56;;;-144.02;97.33
29985;BME280;17387;42.690;23.328;2022-12-18T01:03:32;47815.09;;;-144.02;97.38
29985;BME280;17387;42.690;23.328;2022-12-18T01:05:58;47790.72;;;-144.02;97.17
29985;BME280;17387;42.690;23.328;2022-12-18T01:08:24;47857.75;;;-144.02;97.06
29985;BME280;17387;42.690;23.328;2022-12-18T01:10:49;47849.63;;;-144.02;97.08
29985;BME280;17387;42.690;23.328;2022-12-18T01:13:14;47851.66;;;-144.02;97.36
29985;BME280;17387;42.690;23.328;2022-12-18T01:15:40;47802.91;;;-144.02;97.13
29985;BME280;17387;42.690;23.328;2022-12-18T01:18:06;47847.59;;;-144.02;97.22
29985;BME280;17387;42.690;23.328;2022-12-18T01:20:32;47841.50;;;-144.02;97.18
29985;BME280;17387;42.690;23.328;2022-12-18T01:22:57;47880.09;;;-144.02;97.70
29985;BME280;17387;42.690;23.328;2022-12-18T01:25:23;47857.75;;;-144.02;97.61
29985;BME280;17387;42.690;23.328;2022-12-18T01:27:49;47839.47;;;-144.02;97.87
29985;BME280;17387;42.690;23.328;2022-12-18T01:30:14;47865.91;;;-144.02;97.58
29985;BME280;17387;42.690;23.328;2022-12-18T01:32:40;47827.28;;;-144.02;97.32
29985;BME280;17387;42.690;23.328;2022-12-18T01:35:06;47855.75;;;-144.02;97.72
29985;BME280;17387;42.690;23.328;2022-12-18T01:37:32;47827.28;;;-144.02;97.94
29985;BME280;17387;42.690;23.328;2022-12-18T01:39:57;47821.19;;;-144.02;98.07
29985;BME280;17387;42.690;23.328;2022-12-18T01:42:23;47823.22;;;-144.02;98.02
29985;BME280;17387;42.690;23.328;2022-12-18T01:50:18;47819.16;;;-144.02;97.46
29985;BME280;17387;42.690;23.328;2022-12-18T01:52:51;47849.63;;;-144.02;97.66
29985;BME280;17387;42.690;23.328;2022-12-18T01:55:19;47849.63;;;-144.02;97.40
29985;BME280;17387;42.690;23.328;2022-12-18T01:57:46;47859.78;;;-144.02;97.45
29985;BME280;17387;42.690;23.328;2022-12-18T02:00:15;47869.94;;;-144.02;97.50
29985;BME280;17387;42.690;23.328;2022-12-18T02:02:41;47900.44;;;-144.02;97.49
29985;BME280;17387;42.690;23.328;2022-12-18T02:05:09;47790.72;;;-144.02;97.79
29985;BME280;17387;42.690;23.328;2022-12-18T02:12:48;47837.44;;;-144.02;97.71
29985;BME280;17387;42.690;23.328;2022-12-18T02:15:33;47851.66;;;-144.02;98.07
29985;BME280;17387;42.690;23.328;2022-12-18T02:26:59;47817.13;;;-144.02;97.23
29985;BME280;17387;42.690;23.328;2022-12-18T02:29:31;47794.78;;;-144.02;97.58
29985;BME280;17387;42.690;23.328;2022-12-18T02:31:58;47845.56;;;-144.02;97.46
29985;BME280;17387;42.690;23.328;2022-12-18T02:34:28;47839.47;;;-144.02;97.66
29985;BME280;17387;42.690;23.328;2022-12-18T02:36:56;47829.31;;;-144.02;97.49
29985;BME280;17387;42.690;23.328;2022-12-18T02:39:23;47827.28;;;-144.02;97.41
29985;BME280;17387;42.690;23.328;2022-12-18T02:41:51;47945.13;;;-144.02;97.27
29985;BME280;17387;42.690;23.328;2022-12-18T02:44:16;47837.44;;;-144.02;97.72
29985;BME280;17387;42.690;23.328;2022-12-18T02:46:48;47821.19;;;-144.02;97.95
29985;BME280;17387;42.690;23.328;2022-12-18T02:49:40;47853.69;;;-144.02;97.89
29985;BME280;17387;42.690;23.328;2022-12-18T02:52:27;47823.22;;;-144.02;97.51
29985;BME280;17387;42.690;23.328;2022-12-18T02:55:15;47859.78;;;-144.02;98.19
29985;BME280;17387;42.690;23.328;2022-12-18T03:00:16;47827.28;;;-144.02;98.60
29985;BME280;17387;42.690;23.328;2022-12-18T03:02:51;47876.06;;;-144.02;98.18
29985;BME280;17387;42.690;23.328;2022-12-18T03:05:30;47825.25;;;-144.02;98.08
29985;BME280;17387;42.690;23.328;2022-12-18T03:08:00;47788.69;;;-144.02;97.91
29985;BME280;17387;42.690;23.328;2022-12-18T03:10:29;47817.13;;;-144.02;97.60
29985;BME280;17387;42.690;23.328;2022-12-18T03:13:05;47819.16;;;-144.02;97.88
29985;BME280;17387;42.690;23.328;2022-12-18T03:15:38;47827.28;;;-144.02;97.55
29985;BME280;17387;42.690;23.328;2022-12-18T03:18:17;47835.41;;;-144.02;97.71
29985;BME280;17387;42.690;23.328;2022-12-18T03:20:46;47859.78;;;-144.02;97.45
29985;BME280;17387;42.690;23.328;2022-12-18T03:23:16;47855.75;;;-144.02;96.98
29985;BME280;17387;42.690;23.328;2022-12-18T03:25:44;47843.53;;;-144.02;97.39
29985;BME280;17387;42.690;23.328;2022-12-18T03:28:16;47863.84;;;-144.02;97.37
29985;BME280;17387;42.690;23.328;2022-12-18T03:30:45;47835.41;;;-144.02;96.78
29985;BME280;17387;42.690;23.328;2022-12-18T03:33:21;47833.38;;;-144.02;96.89
29985;BME280;17387;42.690;23.328;2022-12-18T03:35:49;47829.31;;;-144.02;96.71
29985;BME280;17387;42.690;23.328;2022-12-18T03:38:15;47898.41;;;-144.02;96.40
29985;BME280;17387;42.690;23.328;2022-12-18T03:44:15;47831.34;;;-144.02;95.10
29985;BME280;17387;42.690;23.328;2022-12-18T03:46:57;47831.34;;;-144.02;94.33
29985;BME280;17387;42.690;23.328;2022-12-18T03:49:45;47847.59;;;-144.02;93.24
29985;BME280;17387;42.690;23.328;2022-12-18T03:52:35;47819.16;;;-144.02;93.06
29985;BME280;17387;42.690;23.328;2022-12-18T03:55:02;47845.56;;;-144.02;93.31
29985;BME280;17387;42.690;23.328;2022-12-18T03:57:30;47837.44;;;-144.02;93.31
29985;BME280;17387;42.690;23.328;2022-12-18T04:00:01;47863.84;;;-144.02;93.14
29985;BME280;17387;42.690;23.328;2022-12-18T04:02:28;47827.28;;;-144.02;93.54
29985;BME280;17387;42.690;23.328;2022-12-18T04:04:58;47804.94;;;-144.02;93.71
29985;BME280;17387;42.690;23.328;2022-12-18T04:07:26;47811.03;;;-144.02;93.18
29985;BME280;17387;42.690;23.328;2022-12-18T04:09:55;47857.75;;;-144.02;92.59
29985;BME280;17387;42.690;23.328;2022-12-18T04:12:24;47843.53;;;-144.02;92.39
29985;BME280;17387;42.690;23.328;2022-12-18T04:14:53;47831.34;;;-144.02;92.13
29985;BME280;17387;42.690;23.328;2022-12-18T04:17:18;47833.38;;;-144.02;91.46
29985;BME280;17387;42.690;23.328;2022-12-18T04:19:44;47841.50;;;-144.02;90.94
29985;BME280;17387;42.690;23.328;2022-12-18T04:22:10;47790.72;;;-144.02;91.37
29985;BME280;17387;42.690;23.328;2022-12-18T04:24:36;47867.94;;;-144.02;91.49
29985;BME280;17387;42.690;23.328;2022-12-18T04:27:01;47847.59;;;-144.02;91.57
29985;BME280;17387;42.690;23.328;2022-12-18T04:29:27;47817.13;;;-144.02;91.18
29985;BME280;17387;42.690;23.328;2022-12-18T04:31:53;47847.59;;;-144.02;91.46
29985;BME280;17387;42.690;23.328;2022-12-18T04:34:19;47851.66;;;-144.02;91.15
29985;BME280;17387;42.690;23.328;2022-12-18T04:36:45;47851.66;;;-144.02;91.42
29985;BME280;17387;42.690;23.328;2022-12-18T04:39:10;47843.53;;;-144.02;90.77
29985;BME280;17387;42.690;23.328;2022-12-18T04:41:36;47859.78;;;-144.02;90.44
29985;BME280;17387;42.690;23.328;2022-12-18T04:44:01;47867.94;;;-144.02;89.63
29985;BME280;17387;42.690;23.328;2022-12-18T04:46:27;47835.41;;;-144.02;89.42
29985;BME280;17387;42.690;23.328;2022-12-18T04:48:52;47831.34;;;-144.02;89.29
29985;BME280;17387;42.690;23.328;2022-12-18T04:51:17;47855.75;;;-144.02;88.82
29985;BME280;17387;42.690;23.328;2022-12-18T04:53:43;47839.47;;;-144.02;88.55
29985;BME280;17387;42.690;23.328;2022-12-18T04:56:11;47863.84;;;-144.02;88.89
29985;BME280;17387;42.690;23.328;2022-12-18T04:58:38;47821.19;;;-144.02;87.91
29985;BME280;17387;42.690;23.328;2022-12-18T05:01:04;47839.47;;;-144.02;87.99
29985;BME280;17387;42.690;23.328;2022-12-18T05:03:30;47872.00;;;-144.02;88.12
29985;BME280;17387;42.690;23.328;2022-12-18T05:05:55;47817.13;;;-144.02;87.99
29985;BME280;17387;42.690;23.328;2022-12-18T05:08:21;47884.19;;;-144.02;88.23
29985;BME280;17387;42.690;23.328;2022-12-18T05:10:46;47829.31;;;-144.02;88.33
29985;BME280;17387;42.690;23.328;2022-12-18T05:13:12;47811.03;;;-144.02;88.67
29985;BME280;17387;42.690;23.328;2022-12-18T05:15:37;47845.56;;;-144.02;89.40
29985;BME280;17387;42.690;23.328;2022-12-18T05:18:03;47829.31;;;-144.02;89.25
29985;BME280;17387;42.690;23.328;2022-12-18T05:20:29;47847.59;;;-144.02;89.46
29985;BME280;17387;42.690;23.328;2022-12-18T05:22:55;47811.03;;;-144.02;89.15
29985;BME280;17387;42.690;23.328;2022-12-18T05:25:22;47855.75;;;-144.02;89.57
29985;BME280;17387;42.690;23.328;2022-12-18T05:27:47;47837.44;;;-144.02;89.84
29985;BME280;17387;42.690;23.328;2022-12-18T05:30:13;47849.63;;;-144.02;89.93
29985;BME280;17387;42.690;23.328;2022-12-18T05:32:39;47849.63;;;-144.02;89.87
29985;BME280;17387;42.690;23.328;2022-12-18T05:35:07;47800.88;;;-144.02;89.56
29985;BME280;17387;42.690;23.328;2022-12-18T05:37:33;47802.91;;;-144.02;89.21
29985;BME280;17387;42.690;23.328;2022-12-18T05:39:58;47782.59;;;-144.02;88.75
29985;BME280;17387;42.690;23.328;2022-12-18T05:42:24;47833.38;;;-144.02;87.86
29985;BME280;17387;42.690;23.328;2022-12-18T05:44:49;47821.19;;;-144.02;87.91
29985;BME280;17387;42.690;23.328;2022-12-18T05:47:15;47855.75;;;-144.02;88.29
29985;BME280;17387;42.690;23.328;2022-12-18T05:49:40;47847.59;;;-144.02;88.02
29985;BME280;17387;42.690;23.328;2022-12-18T05:52:05;47872.00;;;-144.02;87.76
29985;BME280;17387;42.690;23.328;2022-12-18T05:54:31;47847.59;;;-144.02;88.09
29985;BME280;17387;42.690;23.328;2022-12-18T05:56:57;47794.78;;;-144.02;87.71
29985;BME280;17387;42.690;23.328;2022-12-18T05:59:22;47823.22;;;-144.02;87.50
29985;BME280;17387;42.690;23.328;2022-12-18T06:01:48;47853.69;;;-144.02;87.81
29985;BME280;17387;42.690;23.328;2022-12-18T06:04:14;47821.19;;;-144.02;87.67
29985;BME280;17387;42.690;23.328;2022-12-18T06:06:39;47804.94;;;-144.02;87.83
29985;BME280;17387;42.690;23.328;2022-12-18T06:09:04;47855.75;;;-144.02;87.99
29985;BME280;17387;42.690;23.328;2022-12-18T06:11:36;47867.94;;;-144.02;87.24
29985;BME280;17387;42.690;23.328;2022-12-18T06:14:03;47827.28;;;-144.02;87.84
29985;BME280;17387;42.690;23.328;2022-12-18T06:16:29;47861.84;;;-144.02;88.08
29985;BME280;17387;42.690;23.328;2022-12-18T06:18:56;47863.84;;;-144.02;88.38
29985;BME280;17387;42.690;23.328;2022-12-18T06:21:22;47831.34;;;-144.02;87.85
29985;BME280;17387;42.690;23.328;2022-12-18T06:23:47;47902.47;;;-144.02;87.93
29985;BME280;17387;42.690;23.328;2022-12-18T06:26:13;47833.38;;;-144.02;88.16
29985;BME280;17387;42.690;23.328;2022-12-18T06:28:39;47835.41;;;-144.02;87.93
29985;BME280;17387;42.690;23.328;2022-12-18T06:31:05;47853.69;;;-144.02;87.57
29985;BME280;17387;42.690;23.328;2022-12-18T06:33:31;47831.34;;;-144.02;87.62
29985;BME280;17387;42.690;23.328;2022-12-18T06:36:05;47835.41;;;-144.02;87.44
29985;BME280;17387;42.690;23.328;2022-12-18T06:38:33;47794.78;;;-144.02;87.95
29985;BME280;17387;42.690;23.328;2022-12-18T06:40:58;47851.66;;;-144.02;87.19
29985;BME280;17387;42.690;23.328;2022-12-18T06:43:24;47819.16;;;-144.02;87.38
29985;BME280;17387;42.690;23.328;2022-12-18T06:45:50;47821.19;;;-144.02;86.87
29985;BME280;17387;42.690;23.328;2022-12-18T06:48:20;47815.09;;;-144.02;87.42
29985;BME280;17387;42.690;23.328;2022-12-18T06:50:46;47825.25;;;-144.02;86.56
29985;BME280;17387;42.690;23.328;2022-12-18T06:53:11;47847.59;;;-144.02;86.34
29985;BME280;17387;42.690;23.328;2022-12-18T06:55:36;47833.38;;;-144.02;84.36
29985;BME280;17387;42.690;23.328;2022-12-18T06:58:02;47876.06;;;-144.02;84.48
29985;BME280;17387;42.690;23.328;2022-12-18T07:00:27;47910.59;;;-144.02;83.92
29985;BME280;17387;42.690;23.328;2022-12-18T07:02:53;47833.38;;;-144.02;82.58
29985;BME280;17387;42.690;23.328;2022-12-18T07:05:21;47930.91;;;-144.02;82.46
29985;BME280;17387;42.690;23.328;2022-12-18T07:07:46;47872.00;;;-144.02;82.00
29985;BME280;17387;42.690;23.328;2022-12-18T07:10:12;47853.69;;;-144.02;82.37
29985;BME280;17387;42.690;23.328;2022-12-18T07:12:37;47823.22;;;-144.02;82.99
29985;BME280;17387;42.690;23.328;2022-12-18T07:15:03;47853.69;;;-144.02;83.07
29985;BME280;17387;42.690;23.328;2022-12-18T07:17:28;47855.75;;;-144.02;83.13
29985;BME280;17387;42.690;23.328;2022-12-18T07:19:54;47831.34;;;-144.02;84.01
29985;BME280;17387;42.690;23.328;2022-12-18T07:22:20;47851.66;;;-144.02;84.08
29985;BME280;17387;42.690;23.328;2022-12-18T07:24:45;47896.38;;;-144.02;83.94
29985;BME280;17387;42.690;23.328;2022-12-18T07:27:10;47859.78;;;-144.02;85.19
29985;BME280;17387;42.690;23.328;2022-12-18T07:29:36;47802.91;;;-144.02;85.06
29985;BME280;17387;42.690;23.328;2022-12-18T07:32:01;47839.47;;;-144.02;85.50
29985;BME280;17387;42.690;23.328;2022-12-18T07:34:27;47839.47;;;-144.02;85.86
29985;BME280;17387;42.690;23.328;2022-12-18T07:36:52;47888.25;;;-144.02;85.27
29985;BME280;17387;42.690;23.328;2022-12-18T07:39:17;47825.25;;;-144.02;85.54
29985;BME280;17387;42.690;23.328;2022-12-18T07:41:43;47839.47;;;-144.02;85.96
29985;BME280;17387;42.690;23.328;2022-12-18T07:44:11;47825.25;;;-144.02;85.57
29985;BME280;17387;42.690;23.328;2022-12-18T07:46:37;47847.59;;;-144.02;85.71
29985;BME280;17387;42.690;23.328;2022-12-18T07:49:03;47865.91;;;-144.02;86.13
29985;BME280;17387;42.690;23.328;2022-12-18T07:51:28;47827.28;;;-144.02;85.87
29985;BME280;17387;42.690;23.328;2022-12-18T07:53:54;47819.16;;;-144.02;86.41
29985;BME280;17387;42.690;23.328;2022-12-18T07:56:20;47831.34;;;-144.02;86.66
29985;BME280;17387;42.690;23.328;2022-12-18T07:58:48;47937.00;;;-144.02;86.64
29985;BME280;17387;42.690;23.328;2022-12-18T08:01:13;47786.66;;;-144.02;86.21
29985;BME280;17387;42.690;23.328;2022-12-18T08:03:40;47857.75;;;-144.02;86.51
29985;BME280;17387;42.690;23.328;2022-12-18T08:06:08;47841.50;;;-144.02;86.11
29985;BME280;17387;42.690;23.328;2022-12-18T08:08:34;47837.44;;;-144.02;86.73
29985;BME280;17387;42.690;23.328;2022-12-18T08:11:00;47861.84;;;-144.02;86.37
29985;BME280;17387;42.690;23.328;2022-12-18T08:13:26;47847.59;;;-144.02;86.62
29985;BME280;17387;42.690;23.328;2022-12-18T08:15:58;47839.47;;;-144.02;86.56
29985;BME280;17387;42.690;23.328;2022-12-18T08:18:25;47857.75;;;-144.02;86.33
29985;BME280;17387;42.690;23.328;2022-12-18T08:20:50;47853.69;;;-144.02;86.33
29985;BME280;17387;42.690;23.328;2022-12-18T08:23:16;47794.78;;;-144.02;86.29
29985;BME280;17387;42.690;23.328;2022-12-18T08:25:41;47884.19;;;-144.02;86.45
29985;BME280;17387;42.690;23.328;2022-12-18T08:28:07;47821.19;;;-144.02;86.00
29985;BME280;17387;42.690;23.328;2022-12-18T08:30:32;47865.91;;;-144.02;85.03
29985;BME280;17387;42.690;23.328;2022-12-18T08:32:57;47831.34;;;-144.02;84.30
29985;BME280;17387;42.690;23.328;2022-12-18T08:35:23;47845.56;;;-144.02;83.42
29985;BME280;17387;42.690;23.328;2022-12-18T08:37:48;47811.03;;;-144.02;83.96
29985;BME280;17387;42.690;23.328;2022-12-18T08:40:14;47874.00;;;-144.02;83.82
29985;BME280;17387;42.690;23.328;2022-12-18T08:42:39;47827.28;;;-144.02;83.68
29985;BME280;17387;42.690;23.328;2022-12-18T08:45:23;47861.84;;;-144.02;83.87
29985;BME280;17387;42.690;23.328;2022-12-18T08:47:49;47837.44;;;-144.02;83.24
29985;BME280;17387;42.690;23.328;2022-12-18T08:50:15;47811.03;;;-144.02;82.97
29985;BME280;17387;42.690;23.328;2022-12-18T08:52:40;47811.03;;;-144.02;83.10
29985;BME280;17387;42.690;23.328;2022-12-18T08:55:06;47831.34;;;-144.02;81.70
29985;BME280;17387;42.690;23.328;2022-12-18T08:57:32;47841.50;;;-144.02;81.61
29985;BME280;17387;42.690;23.328;2022-12-18T08:59:57;47843.53;;;-144.02;81.24
29985;BME280;17387;42.690;23.328;2022-12-18T09:02:23;47867.94;;;-144.02;80.75
29985;BME280;17387;42.690;23.328;2022-12-18T09:04:48;47833.38;;;-144.02;80.00
29985;BME280;17387;42.690;23.328;2022-12-18T09:07:13;47839.47;;;-144.02;80.29
29985;BME280;17387;42.690;23.328;2022-12-18T09:09:39;47811.03;;;-144.02;80.22
29985;BME280;17387;42.690;23.328;2022-12-18T09:12:04;47825.25;;;-144.02;79.94
29985;BME280;17387;42.690;23.328;2022-12-18T09:14:30;47839.47;;;-144.02;78.97
29985;BME280;17387;42.690;23.328;2022-12-18T09:16:55;47835.41;;;-144.02;79.08
29985;BME280;17387;42.690;23.328;2022-12-18T09:19:20;47859.78;;;-144.02;79.10
29985;BME280;17387;42.690;23.328;2022-12-18T09:21:46;47802.91;;;-144.02;78.53
29985;BME280;17387;42.690;23.328;2022-12-18T09:24:12;47839.47;;;-144.02;78.09
29985;BME280;17387;42.690;23.328;2022-12-18T09:26:38;47835.41;;;-144.02;77.71
29985;BME280;17387;42.690;23.328;2022-12-18T09:29:04;47841.50;;;-144.02;78.07
29985;BME280;17387;42.690;23.328;2022-12-18T09:31:29;47823.22;;;-144.02;77.38
29985;BME280;17387;42.690;23.328;2022-12-18T09:33:55;47847.59;;;-144.02;77.27
29985;BME280;17387;42.690;23.328;2022-12-18T09:36:21;47823.22;;;-144.02;76.77
29985;BME280;17387;42.690;23.328;2022-12-18T09:38:47;47863.84;;;-144.02;77.52
29985;BME280;17387;42.690;23.328;2022-12-18T09:46:41;47849.63;;;-144.02;76.96
29985;BME280;17387;42.690;23.328;2022-12-18T09:49:13;47825.25;;;-144.02;76.14
29985;BME280;17387;42.690;23.328;2022-12-18T09:51:51;47790.72;;;-144.02;76.39
29985;BME280;17387;42.690;23.328;2022-12-18T09:54:25;47827.28;;;-144.02;76.44
29985;BME280;17387;42.690;23.328;2022-12-18T09:56:51;47802.91;;;-144.02;76.44
29985;BME280;17387;42.690;23.328;2022-12-18T09:59:31;47798.84;;;-144.02;75.73
29985;BME280;17387;42.690;23.328;2022-12-18T10:01:58;47790.72;;;-144.02;75.77
29985;BME280;17387;42.690;23.328;2022-12-18T10:04:24;47839.47;;;-144.02;74.98
29985;BME280;17387;42.690;23.328;2022-12-18T10:06:56;47831.34;;;-144.02;74.47
29985;BME280;17387;42.690;23.328;2022-12-18T10:09:26;47792.75;;;-144.02;74.66
29985;BME280;17387;42.690;23.328;2022-12-18T10:14:50;47804.94;;;-144.02;74.09
29985;BME280;17387;42.690;23.328;2022-12-18T10:25:29;47811.03;;;-144.02;73.79
29985;BME280;17387;42.690;23.328;2022-12-18T10:28:07;47811.03;;;-144.02;73.69
29985;BME280;17387;42.690;23.328;2022-12-18T10:30:33;47855.75;;;-144.02;74.13
29985;BME280;17387;42.690;23.328;2022-12-18T10:33:02;47855.75;;;-144.02;74.19
29985;BME280;17387;42.690;23.328;2022-12-18T10:35:28;47817.13;;;-144.02;73.79
29985;BME280;17387;42.690;23.328;2022-12-18T10:40:26;47839.47;;;-144.02;73.19
29985;BME280;17387;42.690;23.328;2022-12-18T10:43:12;47794.78;;;-144.02;73.73
29985;BME280;17387;42.690;23.328;2022-12-18T10:45:40;47841.50;;;-144.02;74.11
29985;BME280;17387;42.690;23.328;2022-12-18T10:48:18;47900.44;;;-144.02;73.92
29985;BME280;17387;42.690;23.328;2022-12-18T10:50:47;47811.03;;;-144.02;73.48
29985;BME280;17387;42.690;23.328;2022-12-18T10:53:23;47904.50;;;-144.02;72.84
29985;BME280;17387;42.690;23.328;2022-12-18T10:55:49;47809.00;;;-144.02;74.15
29985;BME280;17387;42.690;23.328;2022-12-18T11:06:08;47774.47;;;-144.02;72.63
29985;BME280;17387;42.690;23.328;2022-12-18T11:08:34;47819.16;;;-144.02;72.40
29985;BME280;17387;42.690;23.328;2022-12-18T11:11:00;47786.66;;;-144.02;72.28
29985;BME280;17387;42.690;23.328;2022-12-18T11:13:28;47890.28;;;-144.02;72.03
29985;BME280;17387;42.690;23.328;2022-12-18T11:15:55;47784.63;;;-144.02;71.85
29985;BME280;17387;42.690;23.328;2022-12-18T11:18:32;47817.13;;;-144.02;70.67
29985;BME280;17387;42.690;23.328;2022-12-18T11:21:07;47796.81;;;-144.02;70.99
29985;BME280;17387;42.690;23.328;2022-12-18T11:23:34;47811.03;;;-144.02;71.50
29985;BME280;17387;42.690;23.328;2022-12-18T11:26:04;47815.09;;;-144.02;70.85
29985;BME280;17387;42.690;23.328;2022-12-18T11:31:26;47827.28;;;-144.02;72.60
29985;BME280;17387;42.690;23.328;2022-12-18T11:34:14;47778.53;;;-144.02;72.44
29985;BME280;17387;42.690;23.328;2022-12-18T11:36:48;47819.16;;;-144.02;72.87
29985;BME280;17387;42.690;23.328;2022-12-18T11:39:41;47788.69;;;-144.02;72.02
29985;BME280;17387;42.690;23.328;2022-12-18T11:50:57;47823.22;;;-144.02;72.40
29985;BME280;17387;42.690;23.328;2022-12-18T11:53:25;47815.09;;;-144.02;72.19
29985;BME280;17387;42.690;23.328;2022-12-18T11:56:11;47815.09;;;-144.02;71.63
29985;BME280;17387;42.690;23.328;2022-12-18T11:59:00;47855.75;;;-144.02;71.36
29985;BME280;17387;42.690;23.328;2022-12-18T12:09:46;47776.50;;;-144.02;72.68
29985;BME280;17387;42.690;23.328;2022-12-18T12:12:39;47802.91;;;-144.02;72.30
29985;BME280;17387;42.690;23.328;2022-12-18T12:18:03;47829.31;;;-144.02;72.48
29985;BME280;17387;42.690;23.328;2022-12-18T12:36:57;47784.63;;;-144.02;72.01
29985;BME280;17387;42.690;23.328;2022-12-18T12:39:33;47823.22;;;-144.02;72.45
29985;BME280;17387;42.690;23.328;2022-12-18T12:42:02;47821.19;;;-144.02;72.28
29985;BME280;17387;42.690;23.328;2022-12-18T12:44:51;47790.72;;;-144.02;71.93
29985;BME280;17387;42.690;23.328;2022-12-18T12:47:30;47815.09;;;-144.02;72.05
29985;BME280;17387;42.690;23.328;2022-12-18T12:49:59;47859.78;;;-144.02;72.17
29985;BME280;17387;42.690;23.328;2022-12-18T12:52:30;47821.19;;;-144.02;72.22
29985;BME280;17387;42.690;23.328;2022-12-18T12:55:00;47892.31;;;-144.02;72.27
29985;BME280;17387;42.690;23.328;2022-12-18T12:57:52;47811.03;;;-144.02;71.90
29985;BME280;17387;42.690;23.328;2022-12-18T13:00:20;47811.03;;;-144.02;72.77
29985;BME280;17387;42.690;23.328;2022-12-18T13:05:31;47811.03;;;-144.02;72.65
29985;BME280;17387;42.690;23.328;2022-12-18T13:08:09;47829.31;;;-144.02;73.15
29985;BME280;17387;42.690;23.328;2022-12-18T13:10:35;47792.75;;;-144.02;73.17
29985;BME280;17387;42.690;23.328;2022-12-18T13:15:40;47778.53;;;-144.02;72.52
29985;BME280;17387;42.690;23.328;2022-12-18T13:25:57;47798.84;;;-144.02;73.69
29985;BME280;17387;42.690;23.328;2022-12-18T13:28:56;47839.47;;;-144.02;72.89
29985;BME280;17387;42.690;23.328;2022-12-18T13:34:23;47811.03;;;-144.02;73.30
29985;BME280;17387;42.690;23.328;2022-12-18T13:36:50;47859.78;;;-144.02;72.84
29985;BME280;17387;42.690;23.328;2022-12-18T13:41:53;47855.75;;;-144.02;72.94
29985;BME280;17387;42.690;23.328;2022-12-18T13:47:28;47823.22;;;-144.02;73.79
29985;BME280;17387;42.690;23.328;2022-12-18T13:49:57;47788.69;;;-144.02;73.92
29985;BME280;17387;42.690;23.328;2022-12-18T13:52:26;47847.59;;;-144.02;73.89
29985;BME280;17387;42.690;23.328;2022-12-18T13:54:57;47819.16;;;-144.02;73.92
29985;BME280;17387;42.690;23.328;2022-12-18T13:57:43;47813.06;;;-144.02;74.33
29985;BME280;17387;42.690;23.328;2022-12-18T14:02:53;47855.75;;;-144.02;74.15
29985;BME280;17387;42.690;23.328;2022-12-18T14:07:48;47733.84;;;-144.02;73.07
29985;BME280;17387;42.690;23.328;2022-12-18T14:10:15;47813.06;;;-144.02;72.44
29985;BME280;17387;42.690;23.328;2022-12-18T14:12:45;47823.22;;;-144.02;72.66
29985;BME280;17387;42.690;23.328;2022-12-18T14:15:31;47837.44;;;-144.02;71.39
29985;BME280;17387;42.690;23.328;2022-12-18T14:18:26;47811.03;;;-144.02;71.43
29985;BME280;17387;42.690;23.328;2022-12-18T14:20:56;47782.59;;;-144.02;71.58
29985;BME280;17387;42.690;23.328;2022-12-18T14:25:58;47922.78;;;-144.02;71.73
29985;BME280;17387;42.690;23.328;2022-12-18T14:28:23;47843.53;;;-144.02;71.94
29985;BME280;17387;42.690;23.328;2022-12-18T14:30:50;47835.41;;;-144.02;71.36
29985;BME280;17387;42.690;23.328;2022-12-18T14:33:17;47815.09;;;-144.02;71.30
29985;BME280;17387;42.690;23.328;2022-12-18T14:35:59;47845.56;;;-144.02;70.93
29985;BME280;17387;42.690;23.328;2022-12-18T14:38:37;47802.91;;;-144.02;70.60
29985;BME280;17387;42.690;23.328;2022-12-18T14:41:05;47827.28;;;-144.02;70.49